Terminal Aerodrome Forecast
Issued by NWS Portland, ME

Home | Current Version | Previous Version | Text Only | Print | Product List | Glossary On
Versions: 1 2 3 4 5 6 7 8 9 10 11 12 13 14
000
FTUS41 KGYX 161723
TAFCON
TAF
KCON 161723Z 1618/1718 19004KT P6SM SCT120
     FM170000 VRB03KT P6SM SCT120
     FM171400 01004KT P6SM SCT020 BKN120=

USA.gov is the U.S. government's official web portal to all federal, state and local government web resources and services.